sensor_id;sensor_type;location;lat;lon;timestamp;pressure;altitude;pressure_sealevel;temperature;humidity
23616;BME280;11985;49.404;7.734;2023-06-10T00:03:23;96973.34;;;16.69;75.76
23616;BME280;11985;49.404;7.734;2023-06-10T00:08:25;96985.69;;;16.75;75.54
23616;BME280;11985;49.404;7.734;2023-06-10T00:13:28;96975.72;;;16.65;75.63
23616;BME280;11985;49.404;7.734;2023-06-10T00:18:30;96981.50;;;16.57;76.20
23616;BME280;11985;49.404;7.734;2023-06-10T00:23:32;96979.84;;;16.51;76.45
23616;BME280;11985;49.404;7.734;2023-06-10T00:28:39;96978.91;;;16.40;76.73
23616;BME280;11985;49.404;7.734;2023-06-10T00:33:40;96971.69;;;16.35;76.98
23616;BME280;11985;49.404;7.734;2023-06-10T00:38:42;96977.53;;;16.37;76.68
23616;BME280;11985;49.404;7.734;2023-06-10T00:43:45;96972.00;;;16.39;76.64
23616;BME280;11985;49.404;7.734;2023-06-10T00:48:46;96981.38;;;16.47;75.90
23616;BME280;11985;49.404;7.734;2023-06-10T00:53:48;96973.72;;;16.50;75.66
23616;BME280;11985;49.404;7.734;2023-06-10T00:58:51;96974.56;;;16.56;74.70
23616;BME280;11985;49.404;7.734;2023-06-10T01:03:53;96976.72;;;16.59;74.49
23616;BME280;11985;49.404;7.734;2023-06-10T01:08:57;96984.75;;;16.64;73.81
23616;BME280;11985;49.404;7.734;2023-06-10T01:14:04;96977.78;;;16.58;73.46
23616;BME280;11985;49.404;7.734;2023-06-10T01:19:07;96980.88;;;16.50;73.32
23616;BME280;11985;49.404;7.734;2023-06-10T01:24:11;96989.47;;;16.57;72.31
23616;BME280;11985;49.404;7.734;2023-06-10T01:29:17;96988.13;;;16.81;71.40
23616;BME280;11985;49.404;7.734;2023-06-10T01:34:20;96992.41;;;16.82;71.13
23616;BME280;11985;49.404;7.734;2023-06-10T01:39:26;96989.53;;;16.62;71.38
23616;BME280;11985;49.404;7.734;2023-06-10T01:44:28;97002.09;;;16.45;72.05
23616;BME280;11985;49.404;7.734;2023-06-10T01:49:29;96998.22;;;16.30;72.14
23616;BME280;11985;49.404;7.734;2023-06-10T01:54:32;96995.06;;;16.33;72.09
23616;BME280;11985;49.404;7.734;2023-06-10T01:59:34;96991.09;;;16.36;71.77
23616;BME280;11985;49.404;7.734;2023-06-10T02:04:36;96996.16;;;16.37;71.99
23616;BME280;11985;49.404;7.734;2023-06-10T02:09:39;96998.59;;;16.39;71.83
23616;BME280;11985;49.404;7.734;2023-06-10T02:14:41;97008.34;;;16.33;72.30
23616;BME280;11985;49.404;7.734;2023-06-10T02:19:43;97014.81;;;16.43;72.46
23616;BME280;11985;49.404;7.734;2023-06-10T02:24:51;97012.22;;;16.48;72.61
23616;BME280;11985;49.404;7.734;2023-06-10T02:29:53;97005.84;;;16.49;72.99
23616;BME280;11985;49.404;7.734;2023-06-10T02:34:54;97008.47;;;16.44;73.24
23616;BME280;11985;49.404;7.734;2023-06-10T02:39:57;97011.50;;;16.30;73.85
23616;BME280;11985;49.404;7.734;2023-06-10T02:44:59;97018.06;;;16.23;74.42
23616;BME280;11985;49.404;7.734;2023-06-10T02:50:01;97017.41;;;16.16;74.89
23616;BME280;11985;49.404;7.734;2023-06-10T02:55:05;97013.03;;;16.04;75.66
23616;BME280;11985;49.404;7.734;2023-06-10T03:00:08;97017.91;;;15.91;76.48
23616;BME280;11985;49.404;7.734;2023-06-10T03:05:11;97010.22;;;15.72;77.39
23616;BME280;11985;49.404;7.734;2023-06-10T03:10:14;97014.88;;;15.65;78.08
23616;BME280;11985;49.404;7.734;2023-06-10T03:15:16;97013.34;;;15.52;79.19
23616;BME280;11985;49.404;7.734;2023-06-10T03:20:18;97015.69;;;15.49;80.23
23616;BME280;11985;49.404;7.734;2023-06-10T03:25:21;97021.88;;;15.38;80.98
23616;BME280;11985;49.404;7.734;2023-06-10T03:30:22;97026.47;;;15.25;81.86
23616;BME280;11985;49.404;7.734;2023-06-10T03:35:24;97029.22;;;15.30;82.95
23616;BME280;11985;49.404;7.734;2023-06-10T03:40:27;97027.44;;;15.36;83.31
23616;BME280;11985;49.404;7.734;2023-06-10T03:45:30;97025.91;;;15.40;83.66
23616;BME280;11985;49.404;7.734;2023-06-10T03:50:32;97030.00;;;15.48;83.78
23616;BME280;11985;49.404;7.734;2023-06-10T03:55:35;97026.63;;;15.52;83.70
23616;BME280;11985;49.404;7.734;2023-06-10T04:00:37;97028.06;;;15.60;84.03
23616;BME280;11985;49.404;7.734;2023-06-10T04:05:41;97028.25;;;15.70;83.79
23616;BME280;11985;49.404;7.734;2023-06-10T04:10:44;97032.09;;;15.79;83.68
23616;BME280;11985;49.404;7.734;2023-06-10T04:15:46;97039.50;;;15.77;83.92
23616;BME280;11985;49.404;7.734;2023-06-10T04:20:48;97040.97;;;15.68;84.61
23616;BME280;11985;49.404;7.734;2023-06-10T04:25:51;97040.16;;;15.68;84.91
23616;BME280;11985;49.404;7.734;2023-06-10T04:30:53;97044.41;;;15.86;84.70
23616;BME280;11985;49.404;7.734;2023-06-10T04:35:55;97041.03;;;16.12;83.94
23616;BME280;11985;49.404;7.734;2023-06-10T04:40:58;97046.84;;;16.53;83.38
23616;BME280;11985;49.404;7.734;2023-06-10T04:45:59;97055.72;;;16.85;83.46
23616;BME280;11985;49.404;7.734;2023-06-10T04:51:01;97054.78;;;16.97;83.06
23616;BME280;11985;49.404;7.734;2023-06-10T04:56:04;97054.34;;;17.10;83.07
23616;BME280;11985;49.404;7.734;2023-06-10T05:01:05;97058.72;;;17.21;83.02
23616;BME280;11985;49.404;7.734;2023-06-10T05:06:07;97055.75;;;17.45;81.25
23616;BME280;11985;49.404;7.734;2023-06-10T05:11:10;97057.16;;;17.89;78.92
23616;BME280;11985;49.404;7.734;2023-06-10T05:16:11;97053.09;;;18.29;77.10
23616;BME280;11985;49.404;7.734;2023-06-10T05:21:13;97062.78;;;18.51;76.19
23616;BME280;11985;49.404;7.734;2023-06-10T05:26:17;97066.91;;;18.79;74.55
23616;BME280;11985;49.404;7.734;2023-06-10T05:31:18;97061.91;;;19.23;72.66
23616;BME280;11985;49.404;7.734;2023-06-10T05:36:20;97065.41;;;19.69;70.94
23616;BME280;11985;49.404;7.734;2023-06-10T05:41:23;97065.56;;;20.19;69.12
23616;BME280;11985;49.404;7.734;2023-06-10T05:46:25;97062.53;;;20.56;66.87
23616;BME280;11985;49.404;7.734;2023-06-10T05:51:27;97078.22;;;20.78;65.24
23616;BME280;11985;49.404;7.734;2023-06-10T05:56:30;97084.03;;;20.95;63.98
23616;BME280;11985;49.404;7.734;2023-06-10T06:01:32;97085.53;;;21.12;63.25
23616;BME280;11985;49.404;7.734;2023-06-10T06:06:34;97082.78;;;21.22;62.60
23616;BME280;11985;49.404;7.734;2023-06-10T06:11:37;97077.69;;;21.20;62.60
23616;BME280;11985;49.404;7.734;2023-06-10T06:16:39;97081.25;;;21.55;62.60
23616;BME280;11985;49.404;7.734;2023-06-10T06:21:41;97074.94;;;21.70;61.84
23616;BME280;11985;49.404;7.734;2023-06-10T06:26:44;97077.94;;;21.92;60.83
23616;BME280;11985;49.404;7.734;2023-06-10T06:31:45;97090.56;;;22.21;60.51
23616;BME280;11985;49.404;7.734;2023-06-10T06:36:47;97074.69;;;22.48;59.26
23616;BME280;11985;49.404;7.734;2023-06-10T06:41:50;97089.94;;;22.77;58.22
23616;BME280;11985;49.404;7.734;2023-06-10T06:46:51;97098.09;;;22.66;57.41
23616;BME280;11985;49.404;7.734;2023-06-10T06:51:53;97093.28;;;22.63;57.28
23616;BME280;11985;49.404;7.734;2023-06-10T06:56:56;97096.19;;;22.91;57.30
23616;BME280;11985;49.404;7.734;2023-06-10T07:01:59;97102.16;;;23.07;56.78
23616;BME280;11985;49.404;7.734;2023-06-10T07:07:06;97097.94;;;23.19;56.33
23616;BME280;11985;49.404;7.734;2023-06-10T07:12:10;97094.97;;;23.40;55.42
23616;BME280;11985;49.404;7.734;2023-06-10T07:17:11;97100.34;;;23.40;55.60
23616;BME280;11985;49.404;7.734;2023-06-10T07:22:14;97111.06;;;23.78;55.28
23616;BME280;11985;49.404;7.734;2023-06-10T07:27:17;97104.19;;;24.18;54.06
23616;BME280;11985;49.404;7.734;2023-06-10T07:32:19;97094.44;;;24.36;52.81
23616;BME280;11985;49.404;7.734;2023-06-10T07:37:23;97109.00;;;24.62;52.18
23616;BME280;11985;49.404;7.734;2023-06-10T07:42:26;97100.22;;;24.70;51.56
23616;BME280;11985;49.404;7.734;2023-06-10T07:47:28;97092.50;;;25.05;50.95
23616;BME280;11985;49.404;7.734;2023-06-10T07:52:30;97105.72;;;25.29;50.33
23616;BME280;11985;49.404;7.734;2023-06-10T07:57:33;97095.41;;;25.67;49.70
23616;BME280;11985;49.404;7.734;2023-06-10T08:02:36;97107.38;;;25.75;48.28
23616;BME280;11985;49.404;7.734;2023-06-10T08:07:39;97098.84;;;25.82;47.55
23616;BME280;11985;49.404;7.734;2023-06-10T08:12:42;97100.03;;;25.98;47.30
23616;BME280;11985;49.404;7.734;2023-06-10T08:17:44;97099.84;;;26.17;46.49
23616;BME280;11985;49.404;7.734;2023-06-10T08:22:45;97105.56;;;26.46;45.36
23616;BME280;11985;49.404;7.734;2023-06-10T08:27:48;97096.47;;;26.42;44.77
23616;BME280;11985;49.404;7.734;2023-06-10T08:32:51;97106.25;;;26.61;44.34
23616;BME280;11985;49.404;7.734;2023-06-10T08:37:53;97098.31;;;26.73;43.71
23616;BME280;11985;49.404;7.734;2023-06-10T08:43:00;97103.41;;;26.35;43.05
23616;BME280;11985;49.404;7.734;2023-06-10T08:48:05;97107.41;;;26.06;42.88
23616;BME280;11985;49.404;7.734;2023-06-10T08:53:08;97103.72;;;26.33;43.16
23616;BME280;11985;49.404;7.734;2023-06-10T08:58:12;97097.66;;;26.27;42.42
23616;BME280;11985;49.404;7.734;2023-06-10T09:03:15;97096.50;;;26.20;42.82
23616;BME280;11985;49.404;7.734;2023-06-10T09:08:16;97092.09;;;26.55;42.61
23616;BME280;11985;49.404;7.734;2023-06-10T09:13:20;97091.50;;;26.75;42.29
23616;BME280;11985;49.404;7.734;2023-06-10T09:18:22;97084.69;;;26.87;41.42
23616;BME280;11985;49.404;7.734;2023-06-10T09:23:24;97082.38;;;27.11;41.55
23616;BME280;11985;49.404;7.734;2023-06-10T09:28:27;97083.34;;;27.32;41.04
23616;BME280;11985;49.404;7.734;2023-06-10T09:33:29;97079.34;;;27.30;40.30
23616;BME280;11985;49.404;7.734;2023-06-10T09:38:32;97080.13;;;27.82;40.03
23616;BME280;11985;49.404;7.734;2023-06-10T09:43:42;97074.34;;;27.93;39.18
23616;BME280;11985;49.404;7.734;2023-06-10T09:48:45;97076.31;;;27.66;38.56
23616;BME280;11985;49.404;7.734;2023-06-10T09:53:49;97069.44;;;27.69;38.61
23616;BME280;11985;49.404;7.734;2023-06-10T09:58:54;97070.69;;;27.97;38.44
23616;BME280;11985;49.404;7.734;2023-06-10T10:03:56;97066.44;;;27.87;37.66
23616;BME280;11985;49.404;7.734;2023-06-10T10:08:58;97064.97;;;27.99;37.80
23616;BME280;11985;49.404;7.734;2023-06-10T10:14:03;97068.75;;;27.98;37.95
23616;BME280;11985;49.404;7.734;2023-06-10T10:19:08;97064.75;;;28.04;37.31
23616;BME280;11985;49.404;7.734;2023-06-10T10:24:16;97069.53;;;28.07;36.87
23616;BME280;11985;49.404;7.734;2023-06-10T10:29:24;97068.81;;;27.89;36.79
23616;BME280;11985;49.404;7.734;2023-06-10T10:34:36;97075.28;;;27.97;36.94
23616;BME280;11985;49.404;7.734;2023-06-10T10:39:40;97074.44;;;28.13;36.84
23616;BME280;11985;49.404;7.734;2023-06-10T10:44:44;97072.34;;;27.72;36.83
23616;BME280;11985;49.404;7.734;2023-06-10T10:49:48;97057.19;;;27.88;36.87
23616;BME280;11985;49.404;7.734;2023-06-10T10:54:53;97069.59;;;27.89;36.98
23616;BME280;11985;49.404;7.734;2023-06-10T10:59:57;97053.06;;;27.82;37.23
23616;BME280;11985;49.404;7.734;2023-06-10T11:05:02;97060.69;;;27.80;37.47
23616;BME280;11985;49.404;7.734;2023-06-10T11:10:07;97057.88;;;27.16;37.57
23616;BME280;11985;49.404;7.734;2023-06-10T11:15:10;97054.19;;;27.47;38.26
23616;BME280;11985;49.404;7.734;2023-06-10T11:20:11;97056.88;;;27.81;38.08
23616;BME280;11985;49.404;7.734;2023-06-10T11:25:13;97054.88;;;28.08;38.05
23616;BME280;11985;49.404;7.734;2023-06-10T11:30:20;97056.88;;;27.64;37.76
23616;BME280;11985;49.404;7.734;2023-06-10T11:35:23;97049.44;;;27.09;38.08
23616;BME280;11985;49.404;7.734;2023-06-10T11:40:27;97049.72;;;26.90;38.67
23616;BME280;11985;49.404;7.734;2023-06-10T11:45:32;97042.91;;;27.36;38.67
23616;BME280;11985;49.404;7.734;2023-06-10T11:50:33;97052.78;;;27.41;38.32
23616;BME280;11985;49.404;7.734;2023-06-10T11:55:42;97042.41;;;27.51;38.20
23616;BME280;11985;49.404;7.734;2023-06-10T12:00:46;97048.91;;;27.59;37.38
23616;BME280;11985;49.404;7.734;2023-06-10T12:05:56;97046.09;;;27.47;37.65
23616;BME280;11985;49.404;7.734;2023-06-10T12:10:58;97042.69;;;27.93;37.53
23616;BME280;11985;49.404;7.734;2023-06-10T12:16:07;97033.41;;;28.03;37.18
23616;BME280;11985;49.404;7.734;2023-06-10T12:21:17;97042.63;;;28.10;37.02
23616;BME280;11985;49.404;7.734;2023-06-10T12:26:19;97033.28;;;27.99;37.15
23616;BME280;11985;49.404;7.734;2023-06-10T12:31:22;97042.53;;;28.28;36.79
23616;BME280;11985;49.404;7.734;2023-06-10T12:36:23;97037.00;;;27.77;37.07
23616;BME280;11985;49.404;7.734;2023-06-10T12:41:25;97041.34;;;27.26;37.30
23616;BME280;11985;49.404;7.734;2023-06-10T12:46:36;97043.09;;;27.22;38.35
23616;BME280;11985;49.404;7.734;2023-06-10T12:51:38;97035.41;;;27.59;38.71
23616;BME280;11985;49.404;7.734;2023-06-10T12:56:40;97038.81;;;28.50;37.61
23616;BME280;11985;49.404;7.734;2023-06-10T13:01:43;97036.53;;;28.52;36.74
23616;BME280;11985;49.404;7.734;2023-06-10T13:06:44;97031.56;;;28.24;36.33
23616;BME280;11985;49.404;7.734;2023-06-10T13:11:47;97029.47;;;27.92;35.87
23616;BME280;11985;49.404;7.734;2023-06-10T13:16:50;97025.94;;;28.00;36.57
23616;BME280;11985;49.404;7.734;2023-06-10T13:21:51;97028.41;;;29.23;35.91
23616;BME280;11985;49.404;7.734;2023-06-10T13:26:53;97012.41;;;30.33;35.11
23616;BME280;11985;49.404;7.734;2023-06-10T13:31:57;97010.69;;;30.65;33.71
23616;BME280;11985;49.404;7.734;2023-06-10T13:36:59;97006.00;;;29.92;32.93
23616;BME280;11985;49.404;7.734;2023-06-10T13:42:01;97002.13;;;29.57;32.92
23616;BME280;11985;49.404;7.734;2023-06-10T13:47:04;97003.03;;;29.07;33.46
23616;BME280;11985;49.404;7.734;2023-06-10T13:52:07;97004.44;;;28.62;33.92
23616;BME280;11985;49.404;7.734;2023-06-10T13:57:08;96991.25;;;28.61;35.12
23616;BME280;11985;49.404;7.734;2023-06-10T14:02:11;96994.16;;;28.98;34.19
23616;BME280;11985;49.404;7.734;2023-06-10T14:07:13;96980.06;;;29.58;33.53
23616;BME280;11985;49.404;7.734;2023-06-10T14:12:15;96987.03;;;30.05;33.05
23616;BME280;11985;49.404;7.734;2023-06-10T14:17:18;96992.19;;;29.40;33.06
23616;BME280;11985;49.404;7.734;2023-06-10T14:22:20;96984.75;;;28.74;33.31
23616;BME280;11985;49.404;7.734;2023-06-10T14:27:21;96975.66;;;29.00;33.45
23616;BME280;11985;49.404;7.734;2023-06-10T14:32:24;96972.59;;;28.59;33.62
23616;BME280;11985;49.404;7.734;2023-06-10T14:37:26;96983.63;;;27.86;34.27
23616;BME280;11985;49.404;7.734;2023-06-10T14:42:27;96973.97;;;27.68;35.28
23616;BME280;11985;49.404;7.734;2023-06-10T14:47:30;96969.56;;;28.61;35.25
23616;BME280;11985;49.404;7.734;2023-06-10T14:52:32;96968.31;;;28.29;34.93
23616;BME280;11985;49.404;7.734;2023-06-10T14:57:34;96962.84;;;27.61;34.75
23616;BME280;11985;49.404;7.734;2023-06-10T15:02:37;96961.50;;;27.20;35.04
23616;BME280;11985;49.404;7.734;2023-06-10T15:07:38;96948.31;;;27.83;35.33
23616;BME280;11985;49.404;7.734;2023-06-10T15:12:40;96959.75;;;28.48;35.22
23616;BME280;11985;49.404;7.734;2023-06-10T15:17:45;96946.97;;;28.99;34.51
23616;BME280;11985;49.404;7.734;2023-06-10T15:22:47;96943.34;;;29.28;33.95
23616;BME280;11985;49.404;7.734;2023-06-10T15:27:48;96942.84;;;29.59;33.64
23616;BME280;11985;49.404;7.734;2023-06-10T15:32:51;96943.56;;;29.68;32.54
23616;BME280;11985;49.404;7.734;2023-06-10T15:37:53;96937.47;;;29.83;31.98
23616;BME280;11985;49.404;7.734;2023-06-10T15:42:55;96935.31;;;29.89;32.11
23616;BME280;11985;49.404;7.734;2023-06-10T15:47:58;96923.34;;;29.78;31.58
23616;BME280;11985;49.404;7.734;2023-06-10T15:53:00;96922.97;;;29.55;31.99
23616;BME280;11985;49.404;7.734;2023-06-10T15:58:01;96906.69;;;29.67;31.69
23616;BME280;11985;49.404;7.734;2023-06-10T16:03:06;96911.91;;;29.60;31.86
23616;BME280;11985;49.404;7.734;2023-06-10T16:08:07;96900.25;;;29.71;32.30
23616;BME280;11985;49.404;7.734;2023-06-10T16:13:10;96909.06;;;29.56;32.15
23616;BME280;11985;49.404;7.734;2023-06-10T16:18:12;96916.22;;;28.95;31.67
23616;BME280;11985;49.404;7.734;2023-06-10T16:23:14;96902.88;;;28.48;31.86
23616;BME280;11985;49.404;7.734;2023-06-10T16:28:16;96918.59;;;28.75;32.09
23616;BME280;11985;49.404;7.734;2023-06-10T16:33:18;96917.28;;;29.14;32.19
23616;BME280;11985;49.404;7.734;2023-06-10T16:38:20;96918.47;;;29.26;31.56
23616;BME280;11985;49.404;7.734;2023-06-10T16:43:22;96915.47;;;29.52;31.92
23616;BME280;11985;49.404;7.734;2023-06-10T16:48:27;96911.00;;;29.56;30.94
23616;BME280;11985;49.404;7.734;2023-06-10T16:53:29;96910.91;;;29.77;30.69
23616;BME280;11985;49.404;7.734;2023-06-10T16:58:31;96910.41;;;29.87;30.69
23616;BME280;11985;49.404;7.734;2023-06-10T17:03:34;96915.75;;;30.08;30.63
23616;BME280;11985;49.404;7.734;2023-06-10T17:08:36;96912.56;;;29.81;30.30
23616;BME280;11985;49.404;7.734;2023-06-10T17:13:37;96922.19;;;29.66;30.38
23616;BME280;11985;49.404;7.734;2023-06-10T17:18:40;96925.53;;;29.06;30.68
23616;BME280;11985;49.404;7.734;2023-06-10T17:23:42;96928.19;;;28.73;31.40
23616;BME280;11985;49.404;7.734;2023-06-10T17:28:43;96937.19;;;28.44;31.93
23616;BME280;11985;49.404;7.734;2023-06-10T17:33:46;96944.25;;;28.27;32.30
23616;BME280;11985;49.404;7.734;2023-06-10T17:38:48;96936.13;;;27.98;32.09
23616;BME280;11985;49.404;7.734;2023-06-10T17:43:49;96943.13;;;27.52;32.50
23616;BME280;11985;49.404;7.734;2023-06-10T17:48:52;96944.00;;;27.18;32.97
23616;BME280;11985;49.404;7.734;2023-06-10T17:53:54;96941.31;;;27.00;33.60
23616;BME280;11985;49.404;7.734;2023-06-10T17:58:55;96944.31;;;26.81;34.37
23616;BME280;11985;49.404;7.734;2023-06-10T18:04:01;96949.09;;;26.67;34.79
23616;BME280;11985;49.404;7.734;2023-06-10T18:09:03;96949.25;;;26.62;35.13
23616;BME280;11985;49.404;7.734;2023-06-10T18:14:05;96943.38;;;26.60;35.76
23616;BME280;11985;49.404;7.734;2023-06-10T18:19:08;96951.78;;;26.50;35.89
23616;BME280;11985;49.404;7.734;2023-06-10T18:24:10;96958.22;;;26.31;36.33
23616;BME280;11985;49.404;7.734;2023-06-10T18:29:11;96960.59;;;26.16;36.49
23616;BME280;11985;49.404;7.734;2023-06-10T18:34:15;96961.19;;;26.04;37.10
23616;BME280;11985;49.404;7.734;2023-06-10T18:39:16;96967.94;;;25.84;37.41
23616;BME280;11985;49.404;7.734;2023-06-10T18:44:18;96965.16;;;25.67;37.80
23616;BME280;11985;49.404;7.734;2023-06-10T18:49:21;96976.31;;;25.51;38.19
23616;BME280;11985;49.404;7.734;2023-06-10T18:54:22;96975.91;;;25.36;38.95
23616;BME280;11985;49.404;7.734;2023-06-10T18:59:24;96986.00;;;25.21;39.31
23616;BME280;11985;49.404;7.734;2023-06-10T19:04:27;96990.13;;;25.05;39.74
23616;BME280;11985;49.404;7.734;2023-06-10T19:09:29;97002.34;;;24.89;40.34
23616;BME280;11985;49.404;7.734;2023-06-10T19:14:30;96994.91;;;24.72;40.32
23616;BME280;11985;49.404;7.734;2023-06-10T19:19:33;97002.63;;;24.51;41.14
23616;BME280;11985;49.404;7.734;2023-06-10T19:24:35;97006.81;;;24.30;41.99
23616;BME280;11985;49.404;7.734;2023-06-10T19:29:37;97013.50;;;24.05;42.42
23616;BME280;11985;49.404;7.734;2023-06-10T19:34:40;97015.69;;;23.89;43.22
23616;BME280;11985;49.404;7.734;2023-06-10T19:39:42;97026.69;;;23.74;44.46
23616;BME280;11985;49.404;7.734;2023-06-10T19:44:43;97026.00;;;23.68;44.72
23616;BME280;11985;49.404;7.734;2023-06-10T19:49:46;97045.03;;;23.53;45.78
23616;BME280;11985;49.404;7.734;2023-06-10T19:54:48;97039.00;;;23.28;46.36
23616;BME280;11985;49.404;7.734;2023-06-10T19:59:50;97044.47;;;23.04;46.77
23616;BME280;11985;49.404;7.734;2023-06-10T20:04:52;97040.75;;;23.00;47.35
23616;BME280;11985;49.404;7.734;2023-06-10T20:09:54;97033.28;;;22.97;47.55
23616;BME280;11985;49.404;7.734;2023-06-10T20:14:56;97041.31;;;22.97;47.37
23616;BME280;11985;49.404;7.734;2023-06-10T20:19:58;97041.50;;;22.82;47.49
23616;BME280;11985;49.404;7.734;2023-06-10T20:25:00;97039.25;;;22.70;47.84
23616;BME280;11985;49.404;7.734;2023-06-10T20:30:02;97056.88;;;22.57;48.65
23616;BME280;11985;49.404;7.734;2023-06-10T20:35:07;97061.91;;;22.40;49.10
23616;BME280;11985;49.404;7.734;2023-06-10T20:40:09;97074.47;;;22.21;50.18
23616;BME280;11985;49.404;7.734;2023-06-10T20:45:11;97077.44;;;21.90;50.90
23616;BME280;11985;49.404;7.734;2023-06-10T20:50:14;97083.13;;;21.54;52.18
23616;BME280;11985;49.404;7.734;2023-06-10T20:55:16;97083.59;;;21.22;53.33
23616;BME280;11985;49.404;7.734;2023-06-10T21:00:18;97083.44;;;20.98;54.17
23616;BME280;11985;49.404;7.734;2023-06-10T21:05:21;97093.22;;;20.79;54.72
23616;BME280;11985;49.404;7.734;2023-06-10T21:10:23;97098.59;;;20.69;55.73
23616;BME280;11985;49.404;7.734;2023-06-10T21:15:24;97100.22;;;20.65;56.40
23616;BME280;11985;49.404;7.734;2023-06-10T21:20:27;97106.16;;;20.56;57.35
23616;BME280;11985;49.404;7.734;2023-06-10T21:25:30;97107.75;;;20.42;57.87
23616;BME280;11985;49.404;7.734;2023-06-10T21:30:31;97108.03;;;20.51;58.50
23616;BME280;11985;49.404;7.734;2023-06-10T21:35:34;97106.66;;;20.64;58.68
23616;BME280;11985;49.404;7.734;2023-06-10T21:40:36;97109.81;;;20.71;58.98
23616;BME280;11985;49.404;7.734;2023-06-10T21:45:37;97107.19;;;20.66;59.29
23616;BME280;11985;49.404;7.734;2023-06-10T21:50:40;97102.97;;;20.54;59.78
23616;BME280;11985;49.404;7.734;2023-06-10T21:55:42;97112.06;;;20.43;60.52
23616;BME280;11985;49.404;7.734;2023-06-10T22:00:43;97110.75;;;20.25;61.15
23616;BME280;11985;49.404;7.734;2023-06-10T22:05:47;97116.94;;;20.16;61.76
23616;BME280;11985;49.404;7.734;2023-06-10T22:10:49;97112.91;;;20.13;62.58
23616;BME280;11985;49.404;7.734;2023-06-10T22:15:50;97114.28;;;20.11;62.96
23616;BME280;11985;49.404;7.734;2023-06-10T22:20:53;97123.91;;;20.07;63.43
23616;BME280;11985;49.404;7.734;2023-06-10T22:25:55;97124.69;;;20.02;64.25
23616;BME280;11985;49.404;7.734;2023-06-10T22:30:56;97129.53;;;20.00;64.63
23616;BME280;11985;49.404;7.734;2023-06-10T22:35:59;97126.06;;;19.89;65.31
23616;BME280;11985;49.404;7.734;2023-06-10T22:41:01;97120.72;;;19.74;66.23
23616;BME280;11985;49.404;7.734;2023-06-10T22:46:03;97128.19;;;19.62;67.19
23616;BME280;11985;49.404;7.734;2023-06-10T22:51:05;97120.66;;;19.48;68.00
23616;BME280;11985;49.404;7.734;2023-06-10T22:56:07;97128.41;;;19.40;68.83
23616;BME280;11985;49.404;7.734;2023-06-10T23:01:09;97128.38;;;19.24;69.81
23616;BME280;11985;49.404;7.734;2023-06-10T23:06:12;97128.63;;;19.08;71.06
23616;BME280;11985;49.404;7.734;2023-06-10T23:11:15;97136.56;;;18.92;71.87
23616;BME280;11985;49.404;7.734;2023-06-10T23:16:16;97134.69;;;18.83;73.21
23616;BME280;11985;49.404;7.734;2023-06-10T23:21:19;97132.19;;;18.66;74.21
23616;BME280;11985;49.404;7.734;2023-06-10T23:26:21;97135.88;;;18.55;75.48
23616;BME280;11985;49.404;7.734;2023-06-10T23:31:22;97141.66;;;18.41;76.51
23616;BME280;11985;49.404;7.734;2023-06-10T23:36:25;97149.88;;;18.30;77.58
23616;BME280;11985;49.404;7.734;2023-06-10T23:41:27;97151.41;;;18.20;78.61
23616;BME280;11985;49.404;7.734;2023-06-10T23:46:29;97154.25;;;18.09;79.53
23616;BME280;11985;49.404;7.734;2023-06-10T23:51:33;97157.91;;;17.98;80.62
23616;BME280;11985;49.404;7.734;2023-06-10T23:56:35;97148.00;;;17.88;81.62
